createdAt,value
2023-02-24T00:01:41.041Z,9.15
2023-02-24T00:04:10.314Z,9.06
2023-02-24T00:06:41.174Z,9.03
2023-02-24T00:09:18.171Z,9.44
2023-02-24T00:11:48.735Z,9.40
2023-02-24T00:14:16.947Z,9.09
2023-02-24T00:16:45.366Z,9.16
2023-02-24T00:19:19.490Z,9.40
2023-02-24T00:21:46.522Z,9.39
2023-02-24T00:24:13.922Z,9.41
2023-02-24T00:26:41.086Z,9.23
2023-02-24T00:29:10.872Z,9.34
2023-02-24T00:31:41.682Z,8.80
2023-02-24T00:34:09.483Z,8.58
2023-02-24T00:36:36.213Z,8.11
2023-02-24T00:39:09.552Z,8.77
2023-02-24T00:41:42.391Z,8.39
2023-02-24T00:44:12.482Z,8.30
2023-02-24T00:46:43.259Z,8.18
2023-02-24T00:49:17.368Z,8.41
2023-02-24T00:51:49.439Z,8.37
2023-02-24T00:54:16.873Z,8.58
2023-02-24T00:56:45.418Z,8.13
2023-02-24T00:59:14.653Z,8.23
2023-02-24T01:01:45.348Z,8.60
2023-02-24T01:04:13.307Z,8.36
2023-02-24T01:06:43.589Z,8.14
2023-02-24T01:09:14.862Z,8.05
2023-02-24T01:12:01.572Z,8.63
2023-02-24T01:14:31.746Z,8.48
2023-02-24T01:16:59.083Z,8.43
2023-02-24T01:19:31.895Z,8.49
2023-02-24T01:22:01.209Z,8.59
2023-02-24T01:24:31.648Z,8.58
2023-02-24T01:26:58.369Z,8.29
2023-02-24T01:29:27.805Z,8.15
2023-02-24T01:31:58.395Z,8.02
2023-02-24T01:34:27.864Z,8.20
2023-02-24T01:36:55.000Z,8.06
2023-02-24T01:39:21.946Z,7.95
2023-02-24T01:41:53.092Z,8.22
2023-02-24T01:44:22.531Z,8.09
2023-02-24T01:46:51.857Z,7.80
2023-02-24T01:49:21.279Z,7.86
2023-02-24T01:51:59.147Z,7.97
2023-02-24T01:54:32.318Z,8.10
2023-02-24T01:56:59.932Z,8.06
2023-02-24T01:59:30.343Z,7.53
2023-02-24T02:02:07.060Z,7.98
2023-02-24T02:04:45.192Z,7.67
2023-02-24T02:07:15.881Z,7.72
2023-02-24T02:09:44.303Z,7.46
2023-02-24T02:12:11.409Z,7.96
2023-02-24T02:14:43.298Z,7.66
2023-02-24T02:17:12.913Z,7.95
2023-02-24T02:19:47.055Z,7.72
2023-02-24T02:22:31.915Z,7.86
2023-02-24T02:24:58.529Z,7.83
2023-02-24T02:28:05.662Z,7.76
2023-02-24T02:30:47.572Z,7.78
2023-02-24T02:33:40.548Z,7.33
2023-02-24T02:36:24.134Z,7.45
2023-02-24T02:39:18.328Z,7.76
2023-02-24T02:42:14.418Z,7.52
2023-02-24T02:44:59.287Z,7.80
2023-02-24T02:47:35.066Z,7.66
2023-02-24T02:50:10.709Z,7.50
2023-02-24T02:52:47.182Z,7.32
2023-02-24T02:55:32.232Z,7.83
2023-02-24T02:58:03.077Z,7.29
2023-02-24T03:00:37.268Z,7.09
2023-02-24T03:03:16.456Z,7.66
2023-02-24T03:05:49.632Z,7.26
2023-02-24T03:08:19.085Z,7.74
2023-02-24T03:10:51.155Z,7.48
2023-02-24T03:13:22.453Z,7.73
2023-02-24T03:15:52.683Z,7.43
2023-02-24T03:18:29.205Z,7.43
2023-02-24T03:21:20.184Z,7.63
2023-02-24T03:23:52.006Z,7.07
2023-02-24T03:26:41.578Z,7.25
2023-02-24T03:29:41.986Z,7.18
2023-02-24T03:32:18.090Z,7.15
2023-02-24T03:35:00.219Z,7.37
2023-02-24T03:37:30.049Z,6.89
2023-02-24T03:40:14.675Z,7.18
2023-02-24T03:42:46.245Z,6.92
2023-02-24T03:45:13.669Z,6.63
2023-02-24T03:47:41.307Z,6.70
2023-02-24T03:50:20.421Z,7.04
2023-02-24T03:53:01.533Z,6.66
2023-02-24T03:55:49.938Z,7.18
2023-02-24T03:58:54.213Z,7.01
2023-02-24T04:01:58.115Z,6.51
2023-02-24T04:04:38.586Z,6.95
2023-02-24T04:07:31.443Z,6.97
2023-02-24T04:10:12.839Z,7.02
2023-02-24T04:12:55.820Z,6.50
2023-02-24T04:15:26.616Z,6.57
2023-02-24T04:18:07.991Z,6.75
2023-02-24T04:20:35.910Z,6.74
2023-02-24T04:23:08.913Z,6.65
2023-02-24T04:25:36.210Z,7.01
2023-02-24T04:28:04.359Z,6.62
2023-02-24T04:30:35.486Z,6.57
2023-02-24T04:33:02.668Z,6.83
2023-02-24T04:35:29.523Z,6.78
2023-02-24T04:37:56.754Z,6.84
2023-02-24T04:40:23.650Z,6.60
2023-02-24T04:42:52.712Z,6.97
2023-02-24T04:45:31.064Z,6.87
2023-02-24T04:48:03.469Z,6.78
2023-02-24T04:50:33.321Z,6.89
2023-02-24T04:53:12.462Z,7.07
2023-02-24T04:55:42.482Z,6.77
2023-02-24T04:58:14.585Z,7.10
2023-02-24T05:00:42.240Z,6.85
2023-02-24T05:03:12.090Z,6.94
2023-02-24T05:05:39.241Z,6.83
2023-02-24T05:08:08.988Z,7.21
2023-02-24T05:10:41.355Z,7.25
2023-02-24T05:13:09.297Z,7.13
2023-02-24T05:15:40.696Z,7.18
2023-02-24T05:18:11.296Z,6.52
2023-02-24T05:21:01.635Z,6.79
2023-02-24T05:23:39.357Z,6.66
2023-02-24T05:26:09.146Z,6.91
2023-02-24T05:28:38.228Z,6.38
2023-02-24T05:31:08.582Z,6.89
2023-02-24T05:33:39.561Z,7.07
2023-02-24T05:36:08.833Z,7.05
2023-02-24T05:38:38.429Z,6.91
2023-02-24T05:41:16.958Z,7.09
2023-02-24T05:43:54.980Z,6.65
2023-02-24T05:46:28.946Z,7.13
2023-02-24T05:48:57.076Z,6.90
2023-02-24T05:51:36.379Z,6.93
2023-02-24T05:54:08.609Z,7.08
2023-02-24T05:56:38.730Z,7.09
2023-02-24T05:59:11.368Z,7.16
2023-02-24T06:01:42.054Z,6.89
2023-02-24T06:04:10.000Z,6.70
2023-02-24T06:06:39.538Z,6.73
2023-02-24T06:09:13.153Z,6.46
2023-02-24T06:11:41.559Z,6.87
2023-02-24T06:14:10.679Z,6.57
2023-02-24T06:16:40.077Z,6.80
2023-02-24T06:19:09.358Z,6.58
2023-02-24T06:21:41.290Z,6.63
2023-02-24T06:24:14.716Z,6.71
2023-02-24T06:26:45.604Z,6.67
2023-02-24T06:29:20.821Z,6.71
2023-02-24T06:31:48.787Z,6.30
2023-02-24T06:34:15.665Z,6.33
2023-02-24T06:36:43.722Z,6.32
2023-02-24T06:39:14.655Z,6.17
2023-02-24T06:41:42.649Z,5.95
2023-02-24T06:44:09.691Z,6.39
2023-02-24T06:46:37.199Z,6.60
2023-02-24T06:49:04.090Z,6.31
2023-02-24T06:51:31.035Z,6.34
2023-02-24T06:53:59.631Z,6.67
2023-02-24T06:56:27.713Z,6.53
2023-02-24T06:58:55.977Z,6.41
2023-02-24T07:01:28.912Z,6.32
2023-02-24T07:04:13.261Z,6.16
2023-02-24T07:06:41.730Z,6.27
2023-02-24T07:09:11.224Z,6.04
2023-02-24T07:11:41.562Z,6.17
2023-02-24T07:14:11.396Z,6.22
2023-02-24T07:16:41.656Z,6.16
2023-02-24T07:19:15.653Z,6.23
2023-02-24T07:21:50.003Z,6.12
2023-02-24T07:24:25.570Z,6.40
2023-02-24T07:26:57.636Z,6.32
2023-02-24T07:29:26.100Z,6.46
2023-02-24T07:31:56.834Z,6.13
2023-02-24T07:34:25.371Z,6.58
2023-02-24T07:36:53.240Z,6.20
2023-02-24T07:39:20.633Z,6.25
2023-02-24T07:41:49.750Z,6.45
2023-02-24T07:44:18.951Z,6.52
2023-02-24T07:46:49.332Z,6.15
2023-02-24T07:49:19.921Z,6.50
2023-02-24T07:51:53.031Z,6.29
2023-02-24T07:54:21.389Z,6.51
2023-02-24T07:56:56.949Z,6.29
2023-02-24T07:59:27.451Z,6.06
2023-02-24T08:01:56.024Z,6.33
2023-02-24T08:04:30.172Z,5.90
2023-02-24T08:07:03.083Z,6.62
2023-02-24T08:09:46.652Z,6.40
2023-02-24T08:12:22.128Z,6.44
2023-02-24T08:14:53.647Z,6.39
2023-02-24T08:17:23.279Z,6.32
2023-02-24T08:20:12.152Z,6.45
2023-02-24T08:22:47.255Z,6.71
2023-02-24T08:25:24.348Z,5.93
2023-02-24T08:28:07.355Z,6.65
2023-02-24T08:30:40.973Z,6.55
2023-02-24T08:33:10.945Z,6.49
2023-02-24T08:35:44.992Z,6.33
2023-02-24T08:38:16.657Z,6.68
2023-02-24T08:40:50.604Z,6.32
2023-02-24T08:43:30.960Z,6.32
2023-02-24T08:46:12.708Z,6.55
2023-02-24T08:48:46.647Z,6.56
2023-02-24T08:51:23.089Z,6.52
2023-02-24T08:53:53.287Z,6.36
2023-02-24T08:56:24.522Z,6.03
2023-02-24T08:59:06.868Z,6.38
2023-02-24T09:01:38.184Z,6.35
2023-02-24T09:04:13.235Z,6.34
2023-02-24T09:06:49.061Z,6.56
2023-02-24T09:09:19.098Z,6.13
2023-02-24T09:11:56.537Z,6.62
2023-02-24T09:14:29.620Z,6.16
2023-02-24T09:17:11.640Z,6.53
2023-02-24T09:19:41.093Z,6.33
2023-02-24T09:22:29.770Z,6.52
2023-02-24T09:25:21.292Z,6.21
2023-02-24T09:27:56.487Z,6.58
2023-02-24T09:30:36.511Z,6.45
2023-02-24T09:33:25.990Z,6.34
2023-02-24T09:36:13.288Z,6.29
2023-02-24T09:39:00.504Z,6.80
2023-02-24T09:42:05.472Z,6.90
2023-02-24T09:44:52.786Z,6.99
2023-02-24T09:48:02.188Z,7.01
2023-02-24T09:51:01.653Z,6.75
2023-02-24T09:53:29.570Z,6.69
2023-02-24T09:56:05.301Z,6.94
2023-02-24T09:58:59.954Z,6.84
2023-02-24T10:01:56.179Z,6.79
2023-02-24T10:04:49.243Z,6.99
2023-02-24T10:07:22.543Z,7.13
2023-02-24T10:10:31.426Z,7.04
2023-02-24T10:13:14.116Z,6.48
2023-02-24T10:15:58.518Z,6.86
2023-02-24T10:18:31.917Z,7.09
2023-02-24T10:21:01.297Z,7.16
2023-02-24T10:23:46.082Z,6.98
2023-02-24T10:26:31.990Z,6.73
2023-02-24T10:29:25.690Z,6.50
2023-02-24T10:31:58.086Z,6.62
2023-02-24T10:34:31.953Z,6.91
2023-02-24T10:37:01.937Z,7.01
2023-02-24T10:39:33.419Z,6.62
2023-02-24T10:42:17.716Z,6.98
2023-02-24T10:45:01.729Z,6.81
2023-02-24T10:47:31.337Z,6.75
2023-02-24T10:50:00.435Z,6.38
2023-02-24T10:52:37.375Z,6.91
2023-02-24T10:55:28.486Z,6.93
2023-02-24T10:58:08.286Z,7.19
2023-02-24T11:01:05.795Z,6.74
2023-02-24T11:03:41.816Z,6.81
2023-02-24T11:06:50.422Z,6.51
2023-02-24T11:09:27.495Z,7.14
2023-02-24T11:12:42.833Z,7.05
2023-02-24T11:16:02.117Z,7.33
2023-02-24T11:18:30.810Z,7.21
2023-02-24T11:21:04.859Z,7.28
2023-02-24T11:23:45.079Z,7.10
2023-02-24T11:26:19.005Z,7.35
2023-02-24T11:28:49.538Z,7.38
2023-02-24T11:31:28.467Z,7.38
2023-02-24T11:34:33.779Z,7.13
2023-02-24T11:37:22.811Z,7.18
2023-02-24T11:40:09.537Z,7.05
2023-02-24T11:42:51.867Z,6.85
2023-02-24T11:45:33.784Z,6.86
2023-02-24T11:48:14.934Z,6.87
2023-02-24T11:50:50.476Z,7.16
2023-02-24T11:53:37.017Z,7.10
2023-02-24T11:56:13.369Z,6.54
2023-02-24T11:58:56.078Z,6.36
2023-02-24T12:01:37.919Z,6.48
2023-02-24T12:04:19.489Z,6.98
2023-02-24T12:07:07.744Z,7.14
2023-02-24T12:09:53.756Z,6.43
2023-02-24T12:12:42.672Z,6.47
2023-02-24T12:15:35.446Z,6.60
2023-02-24T12:18:36.032Z,6.73
2023-02-24T12:21:36.580Z,7.14
2023-02-24T12:24:08.711Z,6.31
2023-02-24T12:27:06.307Z,7.03
2023-02-24T12:29:54.768Z,6.97
2023-02-24T12:32:27.560Z,6.69
2023-02-24T12:34:57.444Z,6.69
2023-02-24T12:37:32.825Z,6.68
2023-02-24T12:40:28.953Z,6.64
2023-02-24T12:43:17.456Z,6.87
2023-02-24T12:46:07.260Z,6.85
2023-02-24T12:48:42.956Z,7.02
2023-02-24T12:51:25.666Z,6.90
2023-02-24T12:54:11.646Z,6.79
2023-02-24T12:56:43.003Z,6.32
2023-02-24T12:59:14.817Z,5.67
2023-02-24T13:01:54.238Z,6.00
2023-02-24T13:04:42.894Z,6.15
2023-02-24T13:07:12.568Z,5.96
2023-02-24T13:10:04.115Z,5.38
2023-02-24T13:12:41.749Z,5.76
2023-02-24T13:15:21.425Z,6.15
2023-02-24T13:17:51.772Z,6.39
2023-02-24T13:20:30.603Z,6.54
2023-02-24T13:22:59.184Z,6.42
2023-02-24T13:25:34.132Z,6.93
2023-02-24T13:28:04.645Z,6.27
2023-02-24T13:30:44.938Z,6.27
2023-02-24T13:33:17.637Z,6.32
2023-02-24T13:35:45.919Z,6.10
2023-02-24T13:38:27.106Z,5.83
2023-02-24T13:40:54.009Z,5.59
2023-02-24T13:43:25.061Z,6.39
2023-02-24T13:45:58.491Z,6.11
2023-02-24T13:48:46.798Z,6.23
2023-02-24T13:51:28.651Z,6.22
2023-02-24T13:54:33.950Z,6.75
2023-02-24T13:57:20.889Z,7.02
2023-02-24T13:59:59.298Z,6.97
2023-02-24T14:02:31.304Z,6.51
2023-02-24T14:05:07.959Z,6.59
2023-02-24T14:07:38.601Z,6.40
2023-02-24T14:10:19.324Z,6.43
2023-02-24T14:12:48.407Z,6.58
2023-02-24T14:15:24.892Z,6.57
2023-02-24T14:18:00.353Z,6.18
2023-02-24T14:20:31.146Z,5.97
2023-02-24T14:22:59.544Z,6.11
2023-02-24T14:25:34.667Z,5.92
2023-02-24T14:28:01.870Z,5.79
2023-02-24T14:30:39.399Z,6.35
2023-02-24T14:33:16.362Z,6.09
2023-02-24T14:35:47.096Z,6.08
2023-02-24T14:38:29.121Z,6.18
2023-02-24T14:40:55.875Z,5.61
2023-02-24T14:43:22.605Z,5.55
2023-02-24T14:45:51.541Z,6.25
2023-02-24T14:48:29.575Z,6.18
2023-02-24T14:51:02.947Z,6.39
2023-02-24T14:53:34.062Z,6.01
2023-02-24T14:56:04.002Z,6.13
2023-02-24T14:58:40.766Z,6.33
2023-02-24T15:01:20.188Z,5.98
2023-02-24T15:03:50.370Z,5.71
2023-02-24T15:06:25.335Z,6.08
2023-02-24T15:09:21.127Z,6.02
2023-02-24T15:11:49.048Z,5.73
2023-02-24T15:14:26.770Z,5.21
2023-02-24T15:17:00.211Z,5.22
2023-02-24T15:19:44.247Z,5.88
2023-02-24T15:22:29.646Z,5.97
2023-02-24T15:25:16.496Z,5.62
2023-02-24T15:27:57.415Z,5.88
2023-02-24T15:30:36.142Z,5.82
2023-02-24T15:33:21.361Z,5.80
2023-02-24T15:35:57.443Z,5.90
2023-02-24T15:38:30.595Z,5.64
2023-02-24T15:41:00.437Z,5.21
2023-02-24T15:43:48.698Z,5.66
2023-02-24T15:46:18.549Z,5.46
2023-02-24T15:48:47.710Z,5.40
2023-02-24T15:51:32.539Z,4.88
2023-02-24T15:54:01.819Z,5.25
2023-02-24T15:56:29.474Z,4.98
2023-02-24T15:58:56.216Z,5.05
2023-02-24T16:01:23.002Z,4.99
2023-02-24T16:03:49.841Z,5.25
2023-02-24T16:06:22.173Z,5.61
2023-02-24T16:08:52.164Z,5.23
2023-02-24T16:11:22.924Z,5.12
2023-02-24T16:13:56.147Z,5.02
2023-02-24T16:16:23.304Z,5.69
2023-02-24T16:18:51.264Z,5.18
2023-02-24T16:21:19.546Z,5.14
2023-02-24T16:23:46.273Z,5.76
2023-02-24T16:26:23.488Z,5.69
2023-02-24T16:28:59.318Z,5.44
2023-02-24T16:31:27.041Z,5.46
2023-02-24T16:33:56.019Z,5.27
2023-02-24T16:36:28.181Z,5.34
2023-02-24T16:38:55.368Z,5.49
2023-02-24T16:41:22.099Z,5.24
2023-02-24T16:43:48.819Z,5.48
2023-02-24T16:46:23.623Z,5.19
2023-02-24T16:48:53.612Z,5.50
2023-02-24T16:51:21.837Z,5.64
2023-02-24T16:53:48.556Z,5.37
2023-02-24T16:56:15.939Z,5.07
2023-02-24T16:58:42.771Z,5.37
2023-02-24T17:01:18.143Z,5.11
2023-02-24T17:03:47.237Z,5.46
2023-02-24T17:06:14.065Z,4.91
2023-02-24T17:08:45.786Z,4.66
2023-02-24T17:11:14.707Z,5.14
2023-02-24T17:13:42.024Z,5.11
2023-02-24T17:16:08.777Z,4.65
2023-02-24T17:18:35.724Z,4.87
2023-02-24T17:21:03.612Z,4.95
2023-02-24T17:23:30.353Z,4.87
2023-02-24T17:26:00.485Z,4.56
2023-02-24T17:28:27.988Z,5.14
2023-02-24T17:30:54.860Z,5.05
2023-02-24T17:33:21.712Z,4.89
2023-02-24T17:35:48.537Z,5.13
2023-02-24T17:38:18.752Z,5.02
2023-02-24T17:40:46.474Z,4.65
2023-02-24T17:43:14.184Z,5.05
2023-02-24T17:45:44.487Z,4.80
2023-02-24T17:48:13.077Z,4.93
2023-02-24T17:50:44.495Z,4.54
2023-02-24T17:53:11.907Z,4.94
2023-02-24T17:55:40.331Z,4.10
2023-02-24T17:58:08.940Z,4.30
2023-02-24T18:00:35.696Z,4.53
2023-02-24T18:03:03.648Z,4.51
2023-02-24T18:05:30.411Z,4.15
2023-02-24T18:08:00.427Z,4.32
2023-02-24T18:10:27.489Z,4.53
2023-02-24T18:12:54.496Z,4.68
2023-02-24T18:15:21.330Z,4.38
2023-02-24T18:17:48.066Z,4.75
2023-02-24T18:20:14.868Z,4.18
2023-02-24T18:22:41.614Z,4.33
2023-02-24T18:25:08.556Z,4.30
2023-02-24T18:27:35.418Z,4.14
2023-02-24T18:30:08.857Z,4.22
2023-02-24T18:32:36.194Z,4.18
2023-02-24T18:35:03.106Z,4.26
2023-02-24T18:37:29.922Z,4.20
2023-02-24T18:39:56.661Z,4.08
2023-02-24T18:42:23.395Z,4.30
2023-02-24T18:44:50.104Z,4.35
2023-02-24T18:47:16.820Z,4.21
2023-02-24T18:49:43.600Z,3.94
2023-02-24T18:52:11.679Z,4.10
2023-02-24T18:54:38.492Z,4.08
2023-02-24T18:57:05.313Z,4.15
2023-02-24T18:59:32.032Z,4.16
2023-02-24T19:01:59.005Z,3.89
2023-02-24T19:04:25.805Z,3.85
2023-02-24T19:06:52.681Z,3.68
2023-02-24T19:09:21.852Z,4.18
2023-02-24T19:11:50.119Z,4.25
2023-02-24T19:14:17.801Z,4.36
2023-02-24T19:16:45.220Z,3.77
2023-02-24T19:19:16.595Z,4.28
2023-02-24T19:21:45.701Z,4.34
2023-02-24T19:24:13.983Z,3.79
2023-02-24T19:26:42.838Z,3.86
2023-02-24T19:29:11.569Z,4.26
2023-02-24T19:34:23.756Z,4.02
2023-02-24T19:36:50.536Z,4.35
2023-02-24T19:39:17.726Z,4.03
2023-02-24T19:41:44.832Z,4.02
2023-02-24T19:44:11.885Z,4.47
2023-02-24T19:46:39.448Z,4.17
2023-02-24T19:49:06.782Z,4.24
2023-02-24T19:51:33.516Z,4.39
2023-02-24T19:54:08.431Z,4.56
2023-02-24T19:56:36.784Z,4.21
2023-02-24T19:59:06.105Z,4.30
2023-02-24T20:01:32.904Z,3.99
2023-02-24T20:04:02.137Z,4.12
2023-02-24T20:06:35.823Z,4.45
2023-02-24T20:09:09.017Z,4.48
2023-02-24T20:11:36.766Z,4.50
2023-02-24T20:14:04.266Z,4.12
2023-02-24T20:16:34.985Z,4.52
2023-02-24T20:19:02.400Z,4.13
2023-02-24T20:21:30.066Z,4.35
2023-02-24T20:24:00.943Z,4.15
2023-02-24T20:26:29.069Z,4.36
2023-02-24T20:28:56.532Z,4.26
2023-02-24T20:31:24.115Z,4.11
2023-02-24T20:33:51.546Z,4.46
2023-02-24T20:36:19.862Z,4.41
2023-02-24T20:38:46.982Z,4.30
2023-02-24T20:41:13.908Z,4.00
2023-02-24T20:43:40.700Z,4.30
2023-02-24T20:46:14.533Z,4.02
2023-02-24T20:48:41.539Z,4.23
2023-02-24T20:51:09.561Z,4.55
2023-02-24T20:53:55.662Z,4.19
2023-02-24T20:56:23.961Z,4.37
2023-02-24T20:59:05.089Z,4.52
2023-02-24T21:01:33.233Z,4.30
2023-02-24T21:04:00.626Z,4.18
2023-02-24T21:06:28.300Z,4.50
2023-02-24T21:08:55.654Z,4.08
2023-02-24T21:11:22.469Z,4.64
2023-02-24T21:13:50.340Z,4.50
2023-02-24T21:16:18.791Z,4.36
2023-02-24T21:18:47.455Z,4.71
2023-02-24T21:21:15.406Z,4.28
2023-02-24T21:23:42.920Z,4.45
2023-02-24T21:26:10.836Z,4.54
2023-02-24T21:28:38.510Z,4.31
2023-02-24T21:31:10.802Z,4.72
2023-02-24T21:33:38.488Z,4.18
2023-02-24T21:36:09.324Z,4.44
2023-02-24T21:38:37.831Z,4.80
2023-02-24T21:41:09.650Z,4.49
2023-02-24T21:43:37.900Z,4.62
2023-02-24T21:46:06.654Z,4.13
2023-02-24T21:48:33.972Z,4.41
2023-02-24T21:51:04.306Z,4.58
2023-02-24T21:53:35.873Z,3.99
2023-02-24T21:56:16.473Z,4.47
2023-02-24T21:59:00.734Z,4.59
2023-02-24T22:01:44.140Z,4.60
2023-02-24T22:04:15.372Z,4.56
2023-02-24T22:06:44.739Z,4.71
2023-02-24T22:09:15.674Z,4.67
2023-02-24T22:11:42.330Z,4.37
2023-02-24T22:14:10.893Z,4.74
2023-02-24T22:16:38.422Z,4.16
2023-02-24T22:19:05.229Z,4.78
2023-02-24T22:21:32.595Z,4.64
2023-02-24T22:24:02.256Z,4.67
2023-02-24T22:26:30.916Z,4.87
2023-02-24T22:28:58.623Z,4.75
2023-02-24T22:31:28.034Z,4.59
2023-02-24T22:33:54.845Z,4.87
2023-02-24T22:36:25.333Z,4.57
2023-02-24T22:38:52.959Z,4.44
2023-02-24T22:41:31.759Z,4.81
2023-02-24T22:43:59.428Z,4.22
2023-02-24T22:46:32.245Z,4.36
2023-02-24T22:48:59.589Z,4.63
2023-02-24T22:51:27.040Z,4.85
2023-02-24T22:53:54.606Z,4.65
2023-02-24T22:56:24.676Z,4.60
2023-02-24T22:58:59.065Z,4.31
2023-02-24T23:01:44.755Z,4.65
2023-02-24T23:04:19.796Z,4.68
2023-02-24T23:06:47.659Z,4.46
2023-02-24T23:09:19.912Z,4.07
2023-02-24T23:11:47.697Z,4.68
2023-02-24T23:14:16.438Z,4.60
2023-02-24T23:16:46.546Z,4.64
2023-02-24T23:19:17.964Z,4.69
2023-02-24T23:21:51.056Z,4.78
2023-02-24T23:24:19.966Z,4.35
2023-02-24T23:26:51.450Z,4.35
2023-02-24T23:29:18.878Z,4.69
2023-02-24T23:31:46.633Z,4.38
2023-02-24T23:34:14.570Z,4.55
2023-02-24T23:36:43.792Z,4.62
2023-02-24T23:39:13.198Z,4.37
2023-02-24T23:41:41.427Z,4.49
2023-02-24T23:44:08.526Z,4.66
2023-02-24T23:46:36.215Z,4.55
2023-02-24T23:49:03.846Z,4.86
2023-02-24T23:51:45.808Z,4.66
2023-02-24T23:54:13.961Z,4.74
2023-02-24T23:56:42.427Z,4.55
2023-02-24T23:59:09.128Z,4.34
